FOOG

Details ICAO FOOG (POG)
Name Port Gentil
Region Gabon
Timezone Africa/Libreville (UTC+1.0)
Plans Departing 52
Arriving 57
Stats Elevation 13 ft / 4 m (AMSL)
Location -0.711739° 8.754380°
Runways 1
Magnetic Variation 2.218° W
Sunrise 2019-06-19 05:25:07 UTC / 2019-06-19 06:25:07 Local
Sunset 2019-06-19 17:29:55 UTC / 2019-06-19 18:29:55 Local
Advertisement - Login to hide

Runways

ID Width Length Bearing (true/mag) Surface Threshold Overrun Markings Lighting
03 148 ft / 45 m 6,265 ft / 1,910 m 22.17° / 24.39° ASPHALT 0 ft / 0 m 0 ft / 0 m APP CENTERLINE EDGE THRESHOLD
21 148 ft / 45 m 6,265 ft / 1,910 m 202.17° / 204.39° ASPHALT 0 ft / 0 m 197 ft / 60 m APP CENTERLINE EDGE THRESHOLD

Map

Weather


0- 5 10 15 20 25 30 35+ Temperature / °C

Clouds and Precipitation
Forecast for 2019-06-12 12:00 UTC. Updated 8 days ago

Ground ~20,000 ft ~40,000 ft Winds

METAR

FOOG 192200Z 22009KT 9999 SCT010 25/22 Q1015

TAF

TAF FOOG 191700Z 1918/2018 20010KT 9999 SCT010 BKN030= TAF FOOL 191700Z 1918/2024 22006KT 9999 SCT012 BKN033

Frequencies

Tower 118.30 MHz
Warning: Do not use this data for real-world aviation or navigation. No guarantee of current accuracy is given.